Time;durP1;ratioP1;P1;durP2;ratioP2;P2;SDS_P1;SDS_P2;PMS_P1;PMS_P2;Temp;Humidity;BMP_temperature;BMP_pressure;BME280_temperature;BME280_humidity;BME280_pressure;Samples;Min_cycle;Max_cycle;Signal;HPM_P1;HPM_P2
2022/03/06 00:01:58;;;;;;;9.63;5.47;;;1.00;1.00;;;;;;4876677;29;20184;-51
2022/03/06 00:04:24;;;;;;;9.40;5.87;;;1.00;1.00;;;;;;4876373;29;20196;-56
2022/03/06 00:06:49;;;;;;;8.17;5.40;;;1.00;1.00;;;;;;4876248;29;20204;-51
2022/03/06 00:09:15;;;;;;;7.73;5.83;;;1.00;1.00;;;;;;4876553;29;20201;-52
2022/03/06 00:11:40;;;;;;;10.60;5.30;;;1.00;1.00;;;;;;4876389;29;20187;-52
2022/03/06 00:14:06;;;;;;;10.23;5.90;;;1.00;1.00;;;;;;4876925;29;20529;-51
2022/03/06 00:16:31;;;;;;;10.13;5.73;;;1.00;1.00;;;;;;4876258;29;20647;-52
2022/03/06 00:18:57;;;;;;;7.60;5.57;;;1.00;1.00;;;;;;4876305;29;20955;-50
2022/03/06 00:21:22;;;;;;;10.17;5.60;;;1.00;1.00;;;;;;4876548;29;20558;-52
2022/03/06 00:23:48;;;;;;;7.73;5.50;;;1.10;1.00;;;;;;4886779;29;20188;-54
2022/03/06 00:26:13;;;;;;;11.70;6.87;;;1.00;1.00;;;;;;4881707;29;20188;-52
2022/03/06 00:28:39;;;;;;;11.70;6.27;;;1.00;1.00;;;;;;4864978;29;20257;-52
2022/03/06 00:31:05;;;;;;;8.57;6.10;;;1.00;1.00;;;;;;4877830;29;20196;-51
2022/03/06 00:33:32;;;;;;;10.20;6.80;;;1.00;1.00;;;;;;4889252;29;20212;-52
2022/03/06 00:35:57;;;;;;;13.77;6.73;;;1.00;1.00;;;;;;4875776;29;20933;-52
2022/03/06 00:38:23;;;;;;;13.20;6.37;;;1.00;1.00;;;;;;4881738;29;20484;-51
2022/03/06 00:40:48;;;;;;;12.37;6.97;;;1.10;1.00;;;;;;4895162;29;20176;-52
2022/03/06 00:43:15;;;;;;;9.87;6.80;;;1.00;1.00;;;;;;4887415;29;20188;-52
2022/03/06 00:45:41;;;;;;;9.73;6.87;;;1.10;1.00;;;;;;4876184;29;20181;-52
2022/03/06 00:48:07;;;;;;;9.70;6.87;;;1.10;1.00;;;;;;4876253;29;20428;-52
2022/03/06 00:50:35;;;;;;;10.97;7.00;;;1.10;1.00;;;;;;4875861;29;20903;-52
2022/03/06 00:53:01;;;;;;;9.93;6.73;;;1.10;1.00;;;;;;4876295;29;20256;-52
2022/03/06 00:55:26;;;;;;;12.73;7.43;;;1.10;1.00;;;;;;4876017;29;20528;-52
2022/03/06 00:57:52;;;;;;;17.20;8.00;;;1.00;1.00;;;;;;4879537;29;20219;-52
2022/03/06 01:00:18;;;;;;;11.93;7.00;;;0.90;1.00;;;;;;4879933;29;20196;-52
2022/03/06 01:02:43;;;;;;;9.77;6.93;;;0.90;1.00;;;;;;4879374;29;20287;-52
2022/03/06 01:05:10;;;;;;;14.10;7.40;;;0.90;1.00;;;;;;4879630;29;20249;-52
2022/03/06 01:07:35;;;;;;;10.73;6.80;;;0.90;1.00;;;;;;4879739;29;20860;-52
2022/03/06 01:10:01;;;;;;;11.30;7.30;;;0.90;1.00;;;;;;4879284;29;20473;-53
2022/03/06 01:12:27;;;;;;;10.60;7.17;;;0.90;1.00;;;;;;4879301;29;20635;-52
2022/03/06 01:14:52;;;;;;;11.00;7.43;;;0.80;1.00;;;;;;4879200;29;20424;-52
2022/03/06 01:17:18;;;;;;;12.30;6.33;;;0.80;1.00;;;;;;4879282;29;20547;-52
2022/03/06 01:19:44;;;;;;;10.00;7.13;;;0.80;1.00;;;;;;4879322;29;20635;-51
2022/03/06 01:22:09;;;;;;;11.80;7.03;;;0.70;1.00;;;;;;4879147;29;20251;-52
2022/03/06 01:24:35;;;;;;;8.90;6.67;;;0.70;1.00;;;;;;4879260;29;20698;-52
2022/03/06 01:27:00;;;;;;;11.93;6.80;;;0.70;1.00;;;;;;4878720;29;20200;-53
2022/03/06 01:29:26;;;;;;;13.90;6.70;;;0.70;1.00;;;;;;4879253;29;20608;-51
2022/03/06 01:31:51;;;;;;;13.37;6.23;;;0.60;1.00;;;;;;4879007;29;20173;-52
2022/03/06 01:34:17;;;;;;;12.00;6.90;;;0.60;1.00;;;;;;4878664;29;20196;-51
2022/03/06 01:36:42;;;;;;;12.67;6.83;;;0.60;1.00;;;;;;4878828;29;20283;-52
2022/03/06 01:39:08;;;;;;;9.53;6.93;;;0.50;1.00;;;;;;4878474;29;20215;-52
2022/03/06 01:41:35;;;;;;;9.67;6.40;;;0.50;1.00;;;;;;4878153;29;20193;-52
2022/03/06 01:44:02;;;;;;;10.00;6.60;;;0.50;1.00;;;;;;4878708;29;20266;-52
2022/03/06 01:46:27;;;;;;;8.70;6.40;;;0.50;1.00;;;;;;4878906;29;20437;-52
2022/03/06 01:48:53;;;;;;;10.60;5.93;;;0.50;1.00;;;;;;4878718;29;20449;-52
2022/03/06 01:51:18;;;;;;;10.20;6.70;;;0.50;1.00;;;;;;4878442;29;20184;-52
2022/03/06 01:53:44;;;;;;;13.60;6.83;;;0.50;1.00;;;;;;4878224;29;20722;-52
2022/03/06 01:56:12;;;;;;;8.70;6.50;;;0.50;1.00;;;;;;4878693;29;20193;-52
2022/03/06 01:58:38;;;;;;;10.00;6.17;;;0.50;1.00;;;;;;4878665;29;20853;-52
2022/03/06 02:01:04;;;;;;;10.40;5.93;;;0.50;1.00;;;;;;4878285;29;20439;-52
2022/03/06 02:03:29;;;;;;;8.73;6.40;;;0.60;1.00;;;;;;4861787;29;20859;-51
2022/03/06 02:05:55;;;;;;;9.37;6.17;;;0.60;1.00;;;;;;4877945;29;20188;-52
2022/03/06 02:08:20;;;;;;;8.50;6.37;;;0.60;1.00;;;;;;4878281;29;20827;-52
2022/03/06 02:10:49;;;;;;;8.40;6.40;;;0.50;1.00;;;;;;4878241;29;20196;-52
2022/03/06 02:13:15;;;;;;;13.40;6.93;;;0.50;1.00;;;;;;4868058;29;20690;-52
2022/03/06 02:15:41;;;;;;;13.67;7.03;;;0.50;1.00;;;;;;4859884;29;20409;-52
2022/03/06 02:18:07;;;;;;;13.77;6.90;;;0.50;1.00;;;;;;4877177;29;20698;-53
2022/03/06 02:20:33;;;;;;;11.63;6.43;;;0.60;1.00;;;;;;4876788;29;20432;-53
2022/03/06 02:22:59;;;;;;;11.07;6.63;;;0.50;1.00;;;;;;4882382;29;20278;-52
2022/03/06 02:25:31;;;;;;;9.20;6.37;;;0.50;1.00;;;;;;4896837;29;20848;-51
2022/03/06 02:27:59;;;;;;;11.33;6.70;;;0.50;1.00;;;;;;4883347;29;20212;-52
2022/03/06 02:30:30;;;;;;;8.63;6.40;;;0.50;1.00;;;;;;4878125;29;20837;-52
2022/03/06 02:32:59;;;;;;;8.73;5.80;;;0.50;1.00;;;;;;4878028;29;20449;-53
2022/03/06 02:35:26;;;;;;;11.17;6.17;;;0.50;1.00;;;;;;4878001;29;20476;-53
2022/03/06 02:37:52;;;;;;;10.63;6.57;;;0.50;1.00;;;;;;4877891;29;20475;-52
2022/03/06 02:40:20;;;;;;;9.17;6.00;;;0.50;1.00;;;;;;4892033;29;20517;-52
2022/03/06 02:42:47;;;;;;;8.40;5.57;;;0.50;1.00;;;;;;4895215;29;20428;-52
2022/03/06 02:45:21;;;;;;;9.87;5.37;;;0.40;1.00;;;;;;4894086;29;20476;-52
2022/03/06 02:47:48;;;;;;;8.60;6.00;;;0.40;1.00;;;;;;4895938;29;20547;-53
2022/03/06 02:50:16;;;;;;;6.17;5.07;;;0.50;1.00;;;;;;4895323;29;20522;-52
2022/03/06 02:52:42;;;;;;;7.83;5.60;;;0.50;1.00;;;;;;4894872;29;20455;-53
2022/03/06 02:55:09;;;;;;;12.53;5.50;;;0.50;1.00;;;;;;4894501;29;20931;-51
2022/03/06 02:57:35;;;;;;;9.60;5.77;;;0.50;1.00;;;;;;4886433;29;20669;-51
2022/03/06 03:00:01;;;;;;;10.33;5.53;;;0.50;1.00;;;;;;4893514;29;20508;-54
2022/03/06 03:02:26;;;;;;;6.77;4.87;;;0.50;1.00;;;;;;4894853;29;20196;-52
2022/03/06 03:04:52;;;;;;;6.83;4.90;;;0.50;1.00;;;;;;4892586;29;20486;-52
2022/03/06 03:07:17;;;;;;;10.07;5.50;;;0.50;1.00;;;;;;4894114;29;20204;-52
2022/03/06 03:09:43;;;;;;;6.43;4.93;;;0.50;1.00;;;;;;4893993;29;20200;-51
2022/03/06 03:12:09;;;;;;;9.13;5.47;;;0.50;1.00;;;;;;4894907;29;20207;-53
2022/03/06 03:14:35;;;;;;;10.50;5.57;;;0.50;1.00;;;;;;4894146;29;20566;-51
2022/03/06 03:17:02;;;;;;;8.10;5.47;;;0.50;1.00;;;;;;4899579;29;20475;-52
2022/03/06 03:19:28;;;;;;;9.93;5.73;;;0.50;1.00;;;;;;4893824;29;20444;-51
2022/03/06 03:21:55;;;;;;;6.83;5.23;;;0.50;1.00;;;;;;4893631;29;21196;-52
2022/03/06 03:24:21;;;;;;;5.27;4.77;;;0.50;1.00;;;;;;4898314;29;20655;-52
2022/03/06 03:26:46;;;;;;;11.30;5.30;;;0.50;1.00;;;;;;4893053;29;20440;-52
2022/03/06 03:29:12;;;;;;;7.30;4.90;;;0.50;1.00;;;;;;4893133;29;20203;-52
2022/03/06 03:31:37;;;;;;;7.70;5.60;;;0.50;1.00;;;;;;4894139;29;20195;-51
2022/03/06 03:34:03;;;;;;;7.23;4.87;;;0.60;1.00;;;;;;4894538;29;20638;-52
2022/03/06 03:36:29;;;;;;;11.83;6.70;;;0.50;1.00;;;;;;4894097;29;20196;-52
2022/03/06 03:38:54;;;;;;;34.30;13.90;;;0.60;1.00;;;;;;4894219;29;20184;-52
2022/03/06 03:41:22;;;;;;;19.27;8.97;;;0.60;1.00;;;;;;4905778;29;20526;-51
2022/03/06 03:43:47;;;;;;;11.90;6.30;;;0.50;1.00;;;;;;4890923;29;20239;-51
2022/03/06 03:46:13;;;;;;;10.53;5.40;;;0.50;1.00;;;;;;4889591;29;20448;-52
2022/03/06 03:48:38;;;;;;;10.97;5.20;;;0.50;1.00;;;;;;4891838;29;20202;-52
2022/03/06 03:51:04;;;;;;;9.40;4.70;;;0.50;1.00;;;;;;4892749;29;20549;-52
2022/03/06 03:53:30;;;;;;;5.37;4.37;;;0.50;1.00;;;;;;4894836;29;20199;-52
2022/03/06 03:55:55;;;;;;;9.17;4.37;;;0.50;1.00;;;;;;4894070;29;20207;-52
2022/03/06 03:58:21;;;;;;;6.70;4.20;;;0.50;1.00;;;;;;4890787;29;20216;-52
2022/03/06 04:00:55;;;;;;;6.47;3.80;;;0.50;1.00;;;;;;4890061;29;20252;-53
2022/03/06 04:03:21;;;;;;;5.20;3.90;;;0.50;1.00;;;;;;4908664;29;20260;-52
2022/03/06 04:05:47;;;;;;;8.80;4.33;;;0.60;1.00;;;;;;4894729;29;20446;-51
2022/03/06 04:08:12;;;;;;;5.43;3.60;;;0.60;1.00;;;;;;4882561;29;20451;-52
2022/03/06 04:10:38;;;;;;;4.10;3.10;;;0.60;1.00;;;;;;4902582;29;20243;-52
2022/03/06 04:13:03;;;;;;;6.30;4.10;;;0.60;1.00;;;;;;4901108;29;20217;-52
2022/03/06 04:15:29;;;;;;;4.43;3.43;;;0.60;1.00;;;;;;4901222;29;20890;-52
2022/03/06 04:17:54;;;;;;;5.80;3.70;;;0.60;1.00;;;;;;4903740;29;20207;-52
2022/03/06 04:20:20;;;;;;;4.10;3.57;;;0.60;1.00;;;;;;4895952;29;20196;-52
2022/03/06 04:22:46;;;;;;;5.67;3.50;;;0.60;1.00;;;;;;4893235;29;20192;-51
2022/03/06 04:25:12;;;;;;;7.07;3.80;;;0.60;1.00;;;;;;4894432;29;20523;-52
2022/03/06 04:27:37;;;;;;;6.47;3.63;;;0.70;1.00;;;;;;4894855;29;20563;-52
2022/03/06 04:30:04;;;;;;;5.27;3.90;;;0.70;1.00;;;;;;4894676;29;20188;-53
2022/03/06 04:32:30;;;;;;;4.90;3.70;;;0.60;1.00;;;;;;4898058;29;20195;-51
2022/03/06 04:34:55;;;;;;;6.83;3.83;;;0.60;1.00;;;;;;4898573;29;20447;-52
2022/03/06 04:37:21;;;;;;;4.20;3.63;;;0.60;1.00;;;;;;4895479;29;20754;-52
2022/03/06 04:39:46;;;;;;;6.53;4.10;;;0.60;1.00;;;;;;4898634;29;20275;-52
2022/03/06 04:42:12;;;;;;;4.80;3.40;;;0.60;1.00;;;;;;4900441;29;20194;-52
2022/03/06 04:44:37;;;;;;;8.60;4.00;;;0.60;1.00;;;;;;4905776;29;20766;-52
2022/03/06 04:47:03;;;;;;;5.97;4.07;;;0.60;1.00;;;;;;4897449;29;20176;-52
2022/03/06 04:49:29;;;;;;;6.87;3.43;;;0.60;1.00;;;;;;4897677;29;20678;-54
2022/03/06 04:51:54;;;;;;;3.97;2.87;;;0.60;1.00;;;;;;4896656;29;20528;-52
2022/03/06 04:54:20;;;;;;;3.93;3.50;;;0.60;1.00;;;;;;4893259;29;20199;-57
2022/03/06 04:56:46;;;;;;;4.20;3.50;;;0.60;1.00;;;;;;4897372;29;20307;-52
2022/03/06 04:59:12;;;;;;;3.40;3.10;;;0.60;1.00;;;;;;4896616;29;20534;-52
2022/03/06 05:01:38;;;;;;;5.43;3.50;;;0.60;1.00;;;;;;4897517;29;20990;-52
2022/03/06 05:04:04;;;;;;;5.83;3.70;;;0.60;1.00;;;;;;4896709;29;20195;-53
2022/03/06 05:06:29;;;;;;;3.97;3.10;;;0.60;1.00;;;;;;4896539;29;20360;-52
2022/03/06 05:08:55;;;;;;;6.63;3.37;;;0.60;1.00;;;;;;4896497;29;20436;-52
2022/03/06 05:11:21;;;;;;;6.40;3.20;;;0.70;1.00;;;;;;4893525;29;20634;-52
2022/03/06 05:13:46;;;;;;;4.30;3.30;;;0.70;1.00;;;;;;4895613;29;20195;-52
2022/03/06 05:16:13;;;;;;;3.70;3.00;;;0.70;1.00;;;;;;4896506;29;20552;-52
2022/03/06 05:18:39;;;;;;;5.60;3.70;;;0.70;1.00;;;;;;4894587;29;20204;-52
2022/03/06 05:21:04;;;;;;;7.43;4.10;;;0.70;1.00;;;;;;4895027;29;20432;-52
2022/03/06 05:23:30;;;;;;;7.40;3.50;;;0.70;1.00;;;;;;4896430;29;20188;-52
2022/03/06 05:25:57;;;;;;;3.87;3.37;;;0.70;1.00;;;;;;4896261;29;20184;-52
2022/03/06 05:28:23;;;;;;;4.23;3.83;;;0.60;1.00;;;;;;4896520;29;20244;-51
2022/03/06 05:30:49;;;;;;;6.63;4.47;;;0.60;1.00;;;;;;4895905;29;20443;-53
2022/03/06 05:33:15;;;;;;;4.37;3.50;;;0.60;1.00;;;;;;4895716;29;20464;-53
2022/03/06 05:35:40;;;;;;;6.50;3.80;;;0.70;1.00;;;;;;4894917;29;20183;-52
2022/03/06 05:38:06;;;;;;;6.20;3.90;;;0.60;1.00;;;;;;4895333;29;20219;-52
2022/03/06 05:40:32;;;;;;;6.23;3.77;;;0.60;1.00;;;;;;4879398;29;20239;-53
2022/03/06 05:42:57;;;;;;;4.67;3.47;;;0.60;1.00;;;;;;4895205;29;20188;-52
2022/03/06 05:45:23;;;;;;;5.77;4.00;;;0.60;1.00;;;;;;4895793;29;20227;-59
2022/03/06 05:47:48;;;;;;;4.10;3.17;;;0.60;1.00;;;;;;4900245;29;20234;-52
2022/03/06 05:50:14;;;;;;;5.37;3.60;;;0.50;1.00;;;;;;4892729;29;20188;-51
2022/03/06 05:52:40;;;;;;;7.90;4.00;;;0.60;1.00;;;;;;4895952;29;20600;-52
2022/03/06 05:55:06;;;;;;;7.70;4.40;;;0.60;1.00;;;;;;4893945;29;20247;-52
2022/03/06 05:57:32;;;;;;;5.47;3.80;;;0.60;1.00;;;;;;4895391;29;20247;-52
2022/03/06 05:59:58;;;;;;;5.93;4.10;;;0.60;1.00;;;;;;4897661;29;20471;-52
2022/03/06 06:02:24;;;;;;;5.83;3.53;;;0.50;1.00;;;;;;4895806;29;20169;-52
2022/03/06 06:04:50;;;;;;;6.30;4.07;;;0.60;1.00;;;;;;4895671;29;20207;-52
2022/03/06 06:07:16;;;;;;;6.83;4.33;;;0.60;1.00;;;;;;4894903;29;20487;-52
2022/03/06 06:09:42;;;;;;;5.90;4.07;;;0.60;1.00;;;;;;4895296;29;20665;-53
2022/03/06 06:12:08;;;;;;;4.30;3.87;;;0.60;1.00;;;;;;4896175;29;20443;-52
2022/03/06 06:14:34;;;;;;;7.30;4.07;;;0.60;1.00;;;;;;4895683;29;20196;-52
2022/03/06 06:17:00;;;;;;;8.10;4.80;;;0.70;1.00;;;;;;4895292;29;20464;-52
2022/03/06 06:19:25;;;;;;;6.00;4.50;;;0.60;1.00;;;;;;4877746;29;20292;-51
2022/03/06 06:21:51;;;;;;;8.00;4.70;;;0.60;1.00;;;;;;4894225;29;20196;-52
2022/03/06 06:24:17;;;;;;;5.30;4.10;;;0.70;1.00;;;;;;4895731;29;20187;-52
2022/03/06 06:26:45;;;;;;;5.50;3.90;;;0.60;1.00;;;;;;4895562;29;20192;-52
2022/03/06 06:29:12;;;;;;;6.63;4.00;;;0.70;1.00;;;;;;4894894;29;20626;-52
2022/03/06 06:31:38;;;;;;;4.67;4.10;;;0.60;1.00;;;;;;4894974;29;20854;-52
2022/03/06 06:34:03;;;;;;;4.23;3.80;;;0.70;1.00;;;;;;4895299;29;20432;-52
2022/03/06 06:36:29;;;;;;;6.73;4.30;;;0.70;1.00;;;;;;4895329;29;20192;-52
2022/03/06 06:38:54;;;;;;;5.50;4.33;;;0.70;1.00;;;;;;4878336;29;20219;-51
2022/03/06 06:41:20;;;;;;;5.90;3.97;;;0.80;1.00;;;;;;4895128;29;20192;-52
2022/03/06 06:43:46;;;;;;;6.50;3.87;;;0.80;1.00;;;;;;4894898;29;20253;-52
2022/03/06 06:46:11;;;;;;;9.90;4.63;;;0.80;1.00;;;;;;4897513;29;20203;-55
2022/03/06 06:48:37;;;;;;;4.83;4.10;;;0.80;1.00;;;;;;4894309;29;20198;-52
2022/03/06 06:51:04;;;;;;;7.23;4.60;;;0.80;1.00;;;;;;4894261;29;20624;-52
2022/03/06 06:53:29;;;;;;;6.30;3.90;;;0.90;1.00;;;;;;4893544;29;20433;-52
2022/03/06 06:55:55;;;;;;;10.27;3.50;;;0.90;1.00;;;;;;4894009;29;20926;-52
2022/03/06 06:58:20;;;;;;;8.97;4.50;;;0.90;1.00;;;;;;4894619;29;20226;-52
2022/03/06 07:00:46;;;;;;;4.53;3.73;;;1.00;1.00;;;;;;4886586;29;20199;-51
2022/03/06 07:03:11;;;;;;;7.00;4.37;;;1.10;1.00;;;;;;4892234;29;20291;-52
2022/03/06 07:05:37;;;;;;;8.00;4.00;;;1.10;1.00;;;;;;4893375;29;20620;-54
2022/03/06 07:08:03;;;;;;;4.50;3.83;;;1.10;1.00;;;;;;4893640;29;20180;-52
2022/03/06 07:10:28;;;;;;;4.47;4.07;;;1.20;1.00;;;;;;4877711;29;20274;-52
2022/03/06 07:12:55;;;;;;;4.77;4.17;;;1.20;1.00;;;;;;4898871;29;20196;-52
2022/03/06 07:15:28;;;;;;;6.70;4.37;;;1.20;1.00;;;;;;4894346;29;20278;-52
2022/03/06 07:17:57;;;;;;;5.07;3.80;;;1.20;1.00;;;;;;4895687;29;20475;-51
2022/03/06 07:20:23;;;;;;;3.90;3.50;;;1.20;1.00;;;;;;4895573;29;20439;-52
2022/03/06 07:22:49;;;;;;;4.37;3.63;;;1.30;1.00;;;;;;4894581;29;20487;-52
2022/03/06 07:25:15;;;;;;;6.80;4.40;;;1.30;99.90;;;;;;4893705;29;21284;-52
2022/03/06 07:27:40;;;;;;;9.33;4.57;;;1.40;1.00;;;;;;4893255;29;20193;-52
2022/03/06 07:30:06;;;;;;;5.70;4.13;;;1.40;1.00;;;;;;4893856;29;20186;-52
2022/03/06 07:32:32;;;;;;;4.50;4.10;;;1.50;99.90;;;;;;4894521;29;20193;-54
2022/03/06 07:34:58;;;;;;;6.40;3.87;;;1.60;99.90;;;;;;4891901;29;20483;-52
2022/03/06 07:37:23;;;;;;;7.13;4.40;;;1.60;99.90;;;;;;4893263;29;20211;-52
2022/03/06 07:39:49;;;;;;;5.70;4.10;;;1.70;99.90;;;;;;4893398;29;20546;-52
2022/03/06 07:42:15;;;;;;;9.23;4.77;;;1.90;99.90;;;;;;4893993;29;20187;-52
2022/03/06 07:44:40;;;;;;;15.67;3.73;;;1.90;99.90;;;;;;4893715;29;20487;-52
2022/03/06 07:47:06;;;;;;;5.10;3.97;;;2.10;99.90;;;;;;4893226;29;20203;-51
2022/03/06 07:49:32;;;;;;;6.80;4.13;;;2.20;99.90;;;;;;4893923;29;20180;-51
2022/03/06 07:51:57;;;;;;;4.20;3.50;;;2.40;99.90;;;;;;4893527;29;20443;-52
2022/03/06 07:54:23;;;;;;;4.30;3.43;;;2.50;99.90;;;;;;4893591;29;20266;-53
2022/03/06 07:56:49;;;;;;;4.47;3.47;;;2.60;99.90;;;;;;4892731;29;20532;-51
2022/03/06 07:59:15;;;;;;;3.90;3.50;;;2.70;99.90;;;;;;4895406;29;20183;-52
2022/03/06 08:01:40;;;;;;;5.90;3.80;;;2.80;99.90;;;;;;4893271;29;20240;-52
2022/03/06 08:04:06;;;;;;;5.90;3.80;;;2.90;99.90;;;;;;4893735;29;20436;-51
2022/03/06 08:06:31;;;;;;;9.30;4.03;;;3.00;99.90;;;;;;4893513;29;20187;-51
2022/03/06 08:08:57;;;;;;;7.13;4.00;;;3.10;99.90;;;;;;4892380;29;20216;-53
2022/03/06 08:11:23;;;;;;;5.30;3.73;;;3.20;99.90;;;;;;4894644;29;20188;-52
2022/03/06 08:13:48;;;;;;;6.53;3.70;;;3.20;99.90;;;;;;4893127;29;20200;-52
2022/03/06 08:16:14;;;;;;;5.53;3.20;;;3.40;99.90;;;;;;4893830;29;20278;-52
2022/03/06 08:18:39;;;;;;;5.67;3.50;;;3.40;99.90;;;;;;4895011;29;20220;-52
2022/03/06 08:21:05;;;;;;;3.20;2.90;;;4.00;99.90;;;;;;4895248;29;20195;-52
2022/03/06 08:23:30;;;;;;;5.00;3.23;;;4.80;99.90;;;;;;4893798;29;20824;-52
2022/03/06 08:25:56;;;;;;;3.40;2.67;;;6.20;99.90;;;;;;4893305;29;20535;-51
2022/03/06 08:28:21;;;;;;;3.70;2.40;;;7.70;99.90;;;;;;4894111;29;20197;-51
2022/03/06 08:30:47;;;;;;;8.20;2.70;;;9.00;99.90;;;;;;4893631;29;20202;-52
2022/03/06 08:33:12;;;;;;;5.07;3.13;;;10.00;99.90;;;;;;4894269;29;20238;-52
2022/03/06 08:35:38;;;;;;;4.67;2.27;;;10.60;99.90;;;;;;4894306;29;20259;-52
2022/03/06 08:38:04;;;;;;;2.77;2.20;;;11.10;99.90;;;;;;4893037;29;20226;-52
2022/03/06 08:40:31;;;;;;;2.33;2.07;;;11.30;99.90;;;;;;4894398;29;20354;-52
2022/03/06 08:42:57;;;;;;;2.80;2.50;;;11.40;99.90;;;;;;4893575;29;20195;-51
2022/03/06 08:45:22;;;;;;;2.40;2.20;;;11.70;99.90;;;;;;4893623;29;20502;-55
2022/03/06 08:47:48;;;;;;;2.23;1.90;;;12.00;99.90;;;;;;4882249;29;20228;-51
2022/03/06 08:50:13;;;;;;;3.67;2.40;;;12.20;99.90;;;;;;4893384;29;20211;-52
2022/03/06 08:52:39;;;;;;;2.40;2.20;;;12.30;99.90;;;;;;4893830;29;20188;-51
2022/03/06 08:55:05;;;;;;;5.37;2.17;;;12.30;99.90;;;;;;4894120;29;20630;-52
2022/03/06 08:57:31;;;;;;;2.23;1.87;;;12.40;99.90;;;;;;4891627;29;20220;-52
2022/03/06 08:59:56;;;;;;;4.43;2.70;;;12.40;99.90;;;;;;4894667;29;20495;-54
2022/03/06 09:02:22;;;;;;;2.17;1.93;;;12.00;99.90;;;;;;4894027;29;20192;-51
2022/03/06 09:04:48;;;;;;;2.47;2.07;;;11.90;99.90;;;;;;4898343;29;20188;-52
2022/03/06 09:07:13;;;;;;;6.03;1.80;;;11.70;99.90;;;;;;4894218;29;20184;-51
2022/03/06 09:09:39;;;;;;;3.70;2.10;;;11.30;99.90;;;;;;4900696;29;20278;-53
2022/03/06 09:12:05;;;;;;;2.80;2.17;;;10.70;99.90;;;;;;4893499;29;20602;-53
2022/03/06 09:14:30;;;;;;;4.73;1.97;;;9.90;99.90;;;;;;4893456;29;20184;-51
2022/03/06 09:16:56;;;;;;;2.40;2.20;;;9.70;99.90;;;;;;4893177;29;20439;-51
2022/03/06 09:19:22;;;;;;;3.23;2.30;;;9.80;99.90;;;;;;4897809;29;20195;-52
2022/03/06 09:21:47;;;;;;;4.20;2.40;;;9.90;99.90;;;;;;4896831;29;20191;-52
2022/03/06 09:24:13;;;;;;;5.80;2.83;;;10.20;99.90;;;;;;4896424;29;20251;-51
2022/03/06 09:26:39;;;;;;;2.30;2.10;;;10.30;99.90;;;;;;4897874;29;20202;-52
2022/03/06 09:29:05;;;;;;;3.53;2.77;;;10.10;99.90;;;;;;4908222;29;20546;-51
2022/03/06 09:31:31;;;;;;;2.77;2.57;;;9.80;99.90;;;;;;4916750;29;20435;-52
2022/03/06 09:33:56;;;;;;;4.33;2.57;;;9.00;99.90;;;;;;4898294;29;21064;-52
2022/03/06 09:36:22;;;;;;;3.63;2.90;;;8.80;99.90;;;;;;4916199;29;20198;-51
2022/03/06 09:38:48;;;;;;;4.30;2.30;;;8.70;99.90;;;;;;4916369;29;20606;-51
2022/03/06 09:41:21;;;;;;;6.10;2.50;;;8.80;99.90;;;;;;4903769;29;20198;-51
2022/03/06 09:43:48;;;;;;;4.47;2.60;;;8.70;99.90;;;;;;4901272;29;20859;-52
2022/03/06 09:46:13;;;;;;;3.13;2.83;;;8.60;99.90;;;;;;4897630;29;20504;-52
2022/03/06 09:48:39;;;;;;;3.10;2.70;;;8.40;99.90;;;;;;4892308;29;20951;-52
2022/03/06 09:51:05;;;;;;;4.47;3.13;;;8.20;99.90;;;;;;4890234;29;20202;-52
2022/03/06 09:53:33;;;;;;;4.70;3.27;;;8.30;99.90;;;;;;4899678;29;20538;-52
2022/03/06 09:55:59;;;;;;;3.90;3.20;;;8.10;99.90;;;;;;4898570;29;20446;-51
2022/03/06 09:58:24;;;;;;;10.70;3.70;;;7.50;99.90;;;;;;4896043;29;20471;-52
2022/03/06 10:00:50;;;;;;;5.20;3.60;;;7.20;99.90;;;;;;4895802;29;20194;-52
2022/03/06 10:03:19;;;;;;;6.27;3.60;;;7.00;99.90;;;;;;4898292;29;20196;-52
2022/03/06 10:05:45;;;;;;;5.90;3.70;;;6.60;99.90;;;;;;4898091;29;20184;-52
2022/03/06 10:08:15;;;;;;;4.07;3.27;;;6.40;99.90;;;;;;4894841;29;21282;-52
2022/03/06 10:10:41;;;;;;;4.27;3.37;;;6.40;99.90;;;;;;4895195;29;20270;-52
2022/03/06 10:13:07;;;;;;;6.77;4.10;;;6.30;99.90;;;;;;4894960;29;20533;-52
2022/03/06 10:15:57;;;;;;;3.40;3.10;;;6.40;99.90;;;;;;4893695;29;20183;-52
2022/03/06 10:18:23;;;;;;;5.73;4.17;;;6.90;99.90;;;;;;4894938;29;20936;-52
2022/03/06 10:20:48;;;;;;;3.50;3.20;;;7.50;99.90;;;;;;4895340;29;20515;-53
2022/03/06 10:23:24;;;;;;;3.33;3.00;;;8.00;99.90;;;;;;4895550;29;20199;-52
2022/03/06 10:26:11;;;;;;;4.83;3.27;;;8.30;99.90;;;;;;4893726;29;20272;-52
2022/03/06 10:28:54;;;;;;;3.43;3.13;;;8.30;99.90;;;;;;4896294;29;20991;-52
2022/03/06 10:31:21;;;;;;;3.80;3.23;;;8.50;99.90;;;;;;4893467;29;20428;-52
2022/03/06 10:34:16;;;;;;;5.30;3.23;;;8.50;99.90;;;;;;4896949;29;20444;-55
2022/03/06 10:36:45;;;;;;;4.23;3.30;;;8.20;99.90;;;;;;4888644;29;20483;-53
2022/03/06 10:39:20;;;;;;;4.07;3.20;;;8.00;99.90;;;;;;4878804;29;20975;-52
2022/03/06 10:41:48;;;;;;;4.83;3.27;;;8.10;99.90;;;;;;4894615;29;20862;-52
2022/03/06 10:44:14;;;;;;;4.00;2.90;;;8.40;99.90;;;;;;4896404;29;20464;-52
2022/03/06 10:46:41;;;;;;;4.83;3.10;;;8.90;99.90;;;;;;4895545;29;20484;-52
2022/03/06 10:49:15;;;;;;;4.83;2.70;;;9.40;99.90;;;;;;4894599;29;20447;-52
2022/03/06 10:51:44;;;;;;;4.10;3.07;;;10.10;99.90;;;;;;4895110;29;20489;-52
2022/03/06 10:54:10;;;;;;;4.63;3.23;;;10.70;99.90;;;;;;4892746;29;20439;-52
2022/03/06 10:56:37;;;;;;;4.93;3.23;;;10.30;99.90;;;;;;4895742;29;20464;-52
2022/03/06 10:59:05;;;;;;;5.70;3.70;;;9.70;99.90;;;;;;4895441;29;20463;-52
2022/03/06 11:01:31;;;;;;;5.90;4.00;;;9.00;99.90;;;;;;4894397;29;20907;-52
2022/03/06 11:03:59;;;;;;;3.40;2.93;;;8.20;99.90;;;;;;4894775;29;20451;-53
2022/03/06 11:06:25;;;;;;;5.70;3.50;;;7.40;99.90;;;;;;4896202;29;20853;-52
2022/03/06 11:08:52;;;;;;;4.13;3.53;;;6.80;99.90;;;;;;4896205;29;20428;-52
2022/03/06 11:11:20;;;;;;;7.80;3.67;;;7.00;99.90;;;;;;4897841;29;20443;-52
2022/03/06 11:13:46;;;;;;;5.10;3.60;;;8.00;99.90;;;;;;4894603;29;20480;-52
2022/03/06 11:16:12;;;;;;;3.20;2.90;;;9.30;99.90;;;;;;4894787;29;20448;-52
2022/03/06 11:18:40;;;;;;;4.00;3.10;;;11.00;99.90;;;;;;4878749;29;20219;-52
2022/03/06 11:21:06;;;;;;;3.90;3.10;;;12.50;99.90;;;;;;4906599;29;20453;-52
2022/03/06 11:23:38;;;;;;;4.43;3.27;;;13.40;99.90;;;;;;4893957;29;20496;-52
2022/03/06 11:26:29;;;;;;;5.17;3.03;;;14.20;99.90;;;;;;4895253;29;20439;-53
2022/03/06 11:29:23;;;;;;;4.17;2.90;;;14.60;99.90;;;;;;4895542;29;20879;-54
2022/03/06 11:31:50;;;;;;;3.57;3.10;;;14.90;99.90;;;;;;4894922;29;20439;-52
2022/03/06 11:34:30;;;;;;;4.03;3.20;;;15.30;99.90;;;;;;4893907;29;20523;-51
2022/03/06 11:36:57;;;;;;;3.40;2.90;;;15.20;99.90;;;;;;4887575;29;20514;-50
2022/03/06 11:39:31;;;;;;;3.80;3.40;;;14.60;99.90;;;;;;4896623;29;20455;-51
2022/03/06 11:42:05;;;;;;;5.30;3.80;;;14.20;99.90;;;;;;4894579;29;20769;-52
2022/03/06 11:44:47;;;;;;;7.93;4.10;;;14.40;99.90;;;;;;4886952;29;20487;-51
2022/03/06 11:47:23;;;;;;;6.33;3.93;;;15.20;99.90;;;;;;4892020;29;20452;-50
2022/03/06 11:49:56;;;;;;;4.00;3.30;;;15.20;99.90;;;;;;4892531;29;20432;-51
2022/03/06 11:52:34;;;;;;;5.00;3.60;;;15.20;99.90;;;;;;4894625;29;20936;-51
2022/03/06 11:55:00;;;;;;;4.90;3.50;;;14.90;99.90;;;;;;4893906;29;20530;-52
2022/03/06 11:57:43;;;;;;;4.87;3.80;;;14.80;99.90;;;;;;4893471;29;20572;-53
2022/03/06 12:00:19;;;;;;;8.63;4.00;;;14.10;99.90;;;;;;4893599;29;20571;-51
2022/03/06 12:02:50;;;;;;;12.30;4.03;;;12.90;99.90;;;;;;4894069;29;20432;-51
2022/03/06 12:05:17;;;;;;;7.60;4.50;;;11.20;99.90;;;;;;4894112;29;20444;-51
2022/03/06 12:07:46;;;;;;;18.97;5.23;;;9.70;99.90;;;;;;4893065;29;20515;-52
2022/03/06 12:10:13;;;;;;;7.53;4.67;;;8.90;99.90;;;;;;4892455;29;20439;-51
2022/03/06 12:12:39;;;;;;;7.43;4.60;;;8.40;99.90;;;;;;4895294;29;20991;-51
2022/03/06 12:15:14;;;;;;;10.67;4.90;;;8.00;99.90;;;;;;4892492;29;20440;-52
2022/03/06 12:17:40;;;;;;;5.60;4.07;;;8.00;99.90;;;;;;4891284;29;20218;-50
2022/03/06 12:20:08;;;;;;;5.70;4.23;;;8.40;99.90;;;;;;4891948;29;20482;-51
2022/03/06 12:22:36;;;;;;;5.87;3.90;;;9.10;99.90;;;;;;4891442;29;20443;-52
2022/03/06 12:25:11;;;;;;;6.00;4.40;;;9.70;99.90;;;;;;4876794;29;20938;-51
2022/03/06 12:27:39;;;;;;;11.37;3.90;;;10.10;99.90;;;;;;4890091;29;20451;-53
2022/03/06 12:30:11;;;;;;;6.47;4.10;;;10.10;99.90;;;;;;4891777;29;20466;-57
2022/03/06 12:32:40;;;;;;;5.97;4.03;;;10.30;99.90;;;;;;4894174;29;20444;-55
2022/03/06 12:35:17;;;;;;;4.93;4.30;;;10.80;99.90;;;;;;4893580;29;20475;-52
2022/03/06 12:37:52;;;;;;;7.03;4.33;;;10.70;99.90;;;;;;4893446;29;20474;-51
2022/03/06 12:40:20;;;;;;;5.40;3.90;;;10.10;99.90;;;;;;4892133;29;20487;-54
2022/03/06 12:42:50;;;;;;;6.60;4.37;;;9.50;99.90;;;;;;4892440;29;21204;-52
2022/03/06 12:45:18;;;;;;;6.23;4.30;;;9.00;99.90;;;;;;4888993;29;20501;-52
2022/03/06 12:47:45;;;;;;;7.93;4.50;;;8.50;99.90;;;;;;4893208;29;20451;-52
2022/03/06 12:50:15;;;;;;;6.37;4.87;;;8.00;99.90;;;;;;4892960;29;20572;-51
2022/03/06 12:52:40;;;;;;;16.63;4.67;;;7.60;99.90;;;;;;4894557;29;20440;-52
2022/03/06 12:55:14;;;;;;;7.50;5.20;;;7.60;99.90;;;;;;4896781;29;20483;-52
2022/03/06 12:57:43;;;;;;;5.80;4.60;;;8.00;99.90;;;;;;4889481;29;20223;-51
2022/03/06 13:00:14;;;;;;;6.17;4.17;;;8.70;99.90;;;;;;4895907;29;20444;-52